Time;durP1;ratioP1;P1;durP2;ratioP2;P2;SDS_P1;SDS_P2;PMS_P1;PMS_P2;Temp;Humidity;BMP_temperature;BMP_pressure;BME280_temperature;BME280_humidity;BME280_pressure;Samples;Min_cycle;Max_cycle;Signal;HPM_P1;HPM_P2
2021/12/21 00:01:32;;;;;;;0.30;0.20;;;-1.50;99.90;;;;;;5069854;28;20234;-88
2021/12/21 00:04:00;;;;;;;0.30;0.10;;;-1.50;99.90;;;;;;5068286;28;20282;-88
2021/12/21 00:06:27;;;;;;;0.30;0.10;;;-1.70;99.90;;;;;;5068364;28;20268;-87
2021/12/21 00:08:54;;;;;;;0.30;0.10;;;-1.70;99.90;;;;;;5069430;28;20741;-88
2021/12/21 00:11:21;;;;;;;0.30;0.10;;;-1.90;99.90;;;;;;5069186;28;20202;-88
2021/12/21 00:14:00;;;;;;;0.30;0.10;;;-2.00;99.90;;;;;;5069208;28;20202;-88
2021/12/21 00:16:48;;;;;;;0.30;0.10;;;-2.10;99.90;;;;;;5068982;28;20287;-88
2021/12/21 00:19:38;;;;;;;0.30;0.10;;;-2.00;99.90;;;;;;5067834;28;20202;-88
2021/12/21 00:22:14;;;;;;;0.30;0.10;;;-1.90;99.90;;;;;;5066225;28;20223;-88
2021/12/21 00:24:46;;;;;;;0.85;0.85;;;-1.80;99.90;;;;;;5069571;28;20204;-88
2021/12/21 00:27:15;;;;;;;0.30;0.10;;;-1.80;99.90;;;;;;5066234;28;20203;-88
2021/12/21 00:29:43;;;;;;;0.30;0.10;;;-1.80;99.90;;;;;;5064674;28;20225;-89
2021/12/21 00:32:10;;;;;;;0.30;0.10;;;-1.70;99.90;;;;;;5064964;28;20198;-88
2021/12/21 00:34:39;;;;;;;0.30;0.10;;;-1.70;99.90;;;;;;5065369;28;20259;-87
2021/12/21 00:37:07;;;;;;;0.30;0.10;;;-1.60;99.90;;;;;;5083455;28;20192;-88
2021/12/21 00:39:34;;;;;;;0.30;0.10;;;-1.60;99.90;;;;;;5085844;28;20201;-87
2021/12/21 00:42:02;;;;;;;0.30;0.10;;;-1.60;99.90;;;;;;5067248;28;20205;-87
2021/12/21 00:44:29;;;;;;;0.30;0.10;;;-1.70;99.90;;;;;;5068928;28;20199;-88
2021/12/21 00:46:57;;;;;;;0.30;0.10;;;-1.70;99.90;;;;;;5073168;28;20194;-88
2021/12/21 00:49:26;;;;;;;0.30;0.10;;;-1.70;99.90;;;;;;5073058;28;20221;-87
2021/12/21 00:51:53;;;;;;;0.30;0.20;;;-1.80;99.90;;;;;;5072957;28;20633;-88
2021/12/21 00:54:20;;;;;;;0.30;0.10;;;-1.90;99.90;;;;;;5072819;28;20209;-88
2021/12/21 00:56:47;;;;;;;0.30;0.10;;;-2.00;99.90;;;;;;5070406;28;20203;-89
2021/12/21 00:59:15;;;;;;;0.30;0.10;;;-2.20;99.90;;;;;;5072316;28;20228;-88
2021/12/21 01:01:42;;;;;;;0.30;0.10;;;-2.40;99.90;;;;;;5070044;28;20194;-88
2021/12/21 01:04:20;;;;;;;0.30;0.10;;;-2.50;99.90;;;;;;5070887;28;20190;-88
2021/12/21 01:06:59;;;;;;;0.30;0.10;;;-2.60;99.90;;;;;;5054213;28;20202;-88
2021/12/21 01:09:50;;;;;;;0.30;0.10;;;-2.70;99.90;;;;;;5071359;28;20221;-90
2021/12/21 01:12:32;;;;;;;0.30;0.10;;;-2.70;99.90;;;;;;5073350;28;20205;-88
2021/12/21 01:15:10;;;;;;;0.30;0.20;;;-2.80;99.90;;;;;;5071710;28;20213;-88
2021/12/21 01:17:49;;;;;;;0.30;0.10;;;-2.70;99.90;;;;;;5072967;28;20232;-88
2021/12/21 01:20:29;;;;;;;0.30;0.20;;;-2.70;99.90;;;;;;5068763;28;20216;-88
2021/12/21 01:23:18;;;;;;;0.30;0.10;;;-2.80;99.90;;;;;;5065435;28;20201;-89
2021/12/21 01:25:51;;;;;;;0.30;0.10;;;-2.80;99.90;;;;;;5072713;28;20705;-88
2021/12/21 01:28:24;;;;;;;0.30;0.10;;;-2.90;99.90;;;;;;5069349;28;20250;-89
2021/12/21 01:30:58;;;;;;;0.30;0.10;;;-2.90;99.90;;;;;;5058688;28;20222;-88
2021/12/21 01:33:40;;;;;;;0.30;0.10;;;-2.80;99.90;;;;;;5074441;28;20193;-88
2021/12/21 01:36:18;;;;;;;0.30;0.20;;;-2.70;99.90;;;;;;5077402;28;20197;-88
2021/12/21 01:38:53;;;;;;;0.30;0.10;;;-2.80;99.90;;;;;;5068259;28;20288;-89
2021/12/21 01:41:29;;;;;;;0.30;0.10;;;-2.80;99.90;;;;;;5068942;28;20273;-88
2021/12/21 01:44:07;;;;;;;0.30;0.20;;;-2.90;99.90;;;;;;5070919;28;20575;-89
2021/12/21 01:49:38;;;;;;;0.30;0.10;;;-3.00;99.90;;;;;;5071834;28;20228;-88
2021/12/21 01:52:08;;;;;;;0.30;0.10;;;-3.00;99.90;;;;;;5071967;28;20213;-88
2021/12/21 01:54:35;;;;;;;0.30;0.20;;;-2.90;99.90;;;;;;5069956;28;20202;-89
2021/12/21 01:57:03;;;;;;;0.30;0.10;;;-3.00;99.90;;;;;;5069000;28;20640;-88
2021/12/21 01:59:30;;;;;;;0.30;0.20;;;-3.10;99.90;;;;;;5070849;28;20201;-87
2021/12/21 02:01:57;;;;;;;0.30;0.10;;;-3.20;99.90;;;;;;5071091;28;20832;-89
2021/12/21 02:04:24;;;;;;;0.30;0.10;;;-3.20;99.90;;;;;;5067855;28;20589;-89
2021/12/21 02:06:52;;;;;;;0.30;0.10;;;-3.20;99.90;;;;;;5068615;28;20235;-89
2021/12/21 02:09:25;;;;;;;0.30;0.10;;;-3.10;99.90;;;;;;5070767;28;20282;-88
2021/12/21 02:11:52;;;;;;;0.30;0.10;;;-3.20;99.90;;;;;;5065491;28;20198;-88
2021/12/21 02:14:19;;;;;;;0.30;0.10;;;-3.20;99.90;;;;;;5071371;28;20243;-89
2021/12/21 02:16:55;;;;;;;0.30;0.10;;;-3.20;99.90;;;;;;5071369;28;20255;-88
2021/12/21 02:19:28;;;;;;;0.30;0.10;;;-3.20;99.90;;;;;;5071815;28;20248;-89
2021/12/21 02:22:07;;;;;;;0.30;0.10;;;-3.10;99.90;;;;;;5071031;28;20640;-88
2021/12/21 02:24:42;;;;;;;0.30;0.10;;;-3.10;99.90;;;;;;5071110;28;20197;-89
2021/12/21 02:27:25;;;;;;;0.30;0.10;;;-3.10;99.90;;;;;;5064191;28;20210;-89
2021/12/21 02:29:52;;;;;;;0.30;0.10;;;-3.00;99.90;;;;;;5060589;28;20241;-88
2021/12/21 02:32:19;;;;;;;0.30;0.10;;;-3.10;99.90;;;;;;5088898;28;20358;-89
2021/12/21 02:34:46;;;;;;;1.67;1.17;;;-3.10;99.90;;;;;;5082513;28;20210;-89
2021/12/21 02:37:14;;;;;;;0.30;0.10;;;-3.10;99.90;;;;;;5062763;28;20225;-88
2021/12/21 02:39:41;;;;;;;0.30;0.10;;;-3.20;99.90;;;;;;5071445;28;20212;-88
2021/12/21 02:42:09;;;;;;;0.30;0.10;;;-3.10;99.90;;;;;;5068264;28;21477;-88
2021/12/21 02:44:38;;;;;;;0.30;0.10;;;-3.20;99.90;;;;;;5054094;28;20202;-88
2021/12/21 02:47:06;;;;;;;0.30;0.10;;;-3.20;99.90;;;;;;5059966;28;20198;-88
2021/12/21 02:49:33;;;;;;;0.30;0.10;;;-3.10;99.90;;;;;;5071359;28;20194;-87
2021/12/21 02:52:00;;;;;;;0.30;0.10;;;-3.20;99.90;;;;;;5069692;28;20247;-88
2021/12/21 02:54:28;;;;;;;0.30;0.10;;;-3.10;99.90;;;;;;5062279;28;20589;-87
2021/12/21 02:56:55;;;;;;;0.30;0.10;;;-3.00;99.90;;;;;;5064045;28;20203;-88
2021/12/21 02:59:22;;;;;;;0.30;0.10;;;-3.00;99.90;;;;;;5069176;28;20253;-88
2021/12/21 03:01:49;;;;;;;0.63;0.63;;;-3.10;99.90;;;;;;5070557;28;20215;-88
2021/12/21 03:04:16;;;;;;;0.30;0.10;;;-3.10;99.90;;;;;;5069402;28;20269;-88
2021/12/21 03:09:39;;;;;;;0.30;0.10;;;-3.30;99.90;;;;;;5069645;28;20204;-88
2021/12/21 03:12:28;;;;;;;0.30;0.10;;;-3.20;99.90;;;;;;5067059;28;20198;-88
2021/12/21 03:14:56;;;;;;;0.30;0.10;;;-3.20;99.90;;;;;;5068009;28;20228;-88
2021/12/21 03:17:23;;;;;;;0.30;0.10;;;-3.10;99.90;;;;;;5069642;28;20637;-89
2021/12/21 03:19:50;;;;;;;0.80;0.52;;;-3.20;99.90;;;;;;5068454;28;20202;-88
2021/12/21 03:22:17;;;;;;;0.30;0.10;;;-3.20;99.90;;;;;;5069793;28;20206;-87
2021/12/21 03:24:46;;;;;;;0.30;0.10;;;-3.30;99.90;;;;;;5067639;28;20197;-88
2021/12/21 03:27:14;;;;;;;0.30;0.10;;;-3.30;99.90;;;;;;5084526;28;20185;-87
2021/12/21 03:29:41;;;;;;;0.30;0.10;;;-3.30;99.90;;;;;;5078027;28;20203;-88
2021/12/21 03:32:09;;;;;;;1.70;1.30;;;-3.30;99.90;;;;;;5066391;28;20222;-88
2021/12/21 03:34:36;;;;;;;0.30;0.10;;;-3.30;99.90;;;;;;5062715;28;20214;-88
2021/12/21 03:37:10;;;;;;;0.30;0.10;;;-3.30;99.90;;;;;;5067303;28;20585;-88
2021/12/21 03:39:37;;;;;;;0.30;0.10;;;-3.30;99.90;;;;;;5062723;28;20202;-86
2021/12/21 03:42:07;;;;;;;0.30;0.10;;;-3.30;99.90;;;;;;5058912;28;20193;-87
2021/12/21 03:44:34;;;;;;;0.30;0.10;;;-3.30;99.90;;;;;;5068102;28;20201;-87
2021/12/21 03:47:01;;;;;;;0.30;0.10;;;-3.30;99.90;;;;;;5067001;28;20699;-87
2021/12/21 03:52:19;;;;;;;0.30;0.10;;;-3.20;99.90;;;;;;5066153;28;20198;-88
2021/12/21 03:54:48;;;;;;;0.30;0.10;;;-3.20;99.90;;;;;;5068416;28;20205;-87
2021/12/21 03:57:17;;;;;;;0.30;0.10;;;-3.20;99.90;;;;;;5066022;28;20198;-88
2021/12/21 03:59:45;;;;;;;0.30;0.10;;;-3.20;99.90;;;;;;5069720;28;20714;-88
2021/12/21 04:02:14;;;;;;;0.30;0.10;;;-3.10;99.90;;;;;;5069825;28;20640;-89
2021/12/21 04:04:41;;;;;;;0.30;0.10;;;-3.00;99.90;;;;;;5066985;28;20201;-88
2021/12/21 04:07:08;;;;;;;0.30;0.10;;;-2.90;99.90;;;;;;5069594;28;20266;-88
2021/12/21 04:09:35;;;;;;;0.30;0.10;;;-2.90;99.90;;;;;;5069981;28;20209;-88
2021/12/21 04:12:03;;;;;;;0.30;0.10;;;-2.80;99.90;;;;;;5066886;28;20267;-89
2021/12/21 04:14:33;;;;;;;0.30;0.10;;;-2.80;99.90;;;;;;5066445;28;20261;-89
2021/12/21 04:17:00;;;;;;;0.30;0.10;;;-2.80;99.90;;;;;;5057149;28;20204;-90
2021/12/21 04:19:27;;;;;;;0.30;0.10;;;-2.70;99.90;;;;;;5049476;28;20227;-88
2021/12/21 04:21:54;;;;;;;0.30;0.10;;;-2.60;99.90;;;;;;5067482;28;20193;-88
2021/12/21 04:24:21;;;;;;;0.30;0.10;;;-2.60;99.90;;;;;;5084018;28;20299;-89
2021/12/21 04:26:48;;;;;;;0.30;0.10;;;-2.50;99.90;;;;;;5082896;28;20220;-88
2021/12/21 04:29:16;;;;;;;0.30;0.10;;;-2.50;99.90;;;;;;5065871;28;20247;-88
2021/12/21 04:31:45;;;;;;;0.30;0.10;;;-2.50;99.90;;;;;;5065104;28;20623;-88
2021/12/21 04:34:12;;;;;;;0.30;0.10;;;-2.60;99.90;;;;;;5060224;28;20595;-88
2021/12/21 04:36:40;;;;;;;0.30;0.10;;;-2.70;99.90;;;;;;5069118;28;20202;-88
2021/12/21 04:39:17;;;;;;;0.85;0.85;;;-2.70;99.90;;;;;;5066763;28;20267;-88
2021/12/21 04:41:44;;;;;;;0.30;0.20;;;-2.60;99.90;;;;;;5067739;28;20193;-89
2021/12/21 04:44:12;;;;;;;0.30;0.10;;;-2.50;99.90;;;;;;5065414;28;20194;-89
2021/12/21 04:46:39;;;;;;;0.30;0.10;;;-2.50;99.90;;;;;;5065380;28;20198;-89
2021/12/21 04:49:07;;;;;;;0.30;0.10;;;-2.50;99.90;;;;;;5068753;28;20205;-89
2021/12/21 04:51:34;;;;;;;0.30;0.10;;;-2.60;99.90;;;;;;5068272;28;20221;-89
2021/12/21 04:54:01;;;;;;;0.30;0.10;;;-2.60;99.90;;;;;;5068883;28;20190;-90
2021/12/21 04:56:28;;;;;;;0.40;0.20;;;-2.70;99.90;;;;;;5067779;28;20298;-89
2021/12/21 04:58:55;;;;;;;0.30;0.17;;;-2.70;99.90;;;;;;5069730;28;20194;-89
2021/12/21 05:01:22;;;;;;;0.30;0.10;;;-2.80;99.90;;;;;;5064528;28;20260;-90
2021/12/21 05:03:49;;;;;;;0.30;0.10;;;-2.90;99.90;;;;;;5065708;28;20198;-90
2021/12/21 05:06:19;;;;;;;0.30;0.10;;;-2.80;99.90;;;;;;5064345;28;20194;-89
2021/12/21 05:08:53;;;;;;;0.30;0.10;;;-2.80;99.90;;;;;;5070758;28;20221;-90
2021/12/21 05:11:21;;;;;;;0.30;0.10;;;-2.80;99.90;;;;;;5069855;28;20213;-88
2021/12/21 05:13:48;;;;;;;0.30;0.10;;;-2.80;99.90;;;;;;5067518;28;20217;-88
2021/12/21 05:16:14;;;;;;;0.30;0.10;;;-2.70;99.90;;;;;;5064798;28;20203;-89
2021/12/21 05:18:42;;;;;;;0.30;0.10;;;-2.80;99.90;;;;;;5071586;28;20226;-88
2021/12/21 05:21:09;;;;;;;0.30;0.10;;;-2.90;99.90;;;;;;5076082;28;20196;-88
2021/12/21 05:23:37;;;;;;;0.30;0.10;;;-2.80;99.90;;;;;;5080884;28;20495;-88
2021/12/21 05:26:04;;;;;;;0.30;0.10;;;-2.90;99.90;;;;;;5071199;28;20194;-87
2021/12/21 05:28:31;;;;;;;0.30;0.10;;;-2.90;99.90;;;;;;5072979;28;20247;-88
2021/12/21 05:30:58;;;;;;;0.30;0.10;;;-3.00;99.90;;;;;;5061752;28;20291;-88
2021/12/21 05:33:28;;;;;;;0.30;0.20;;;-3.10;99.90;;;;;;5066921;28;20198;-87
2021/12/21 05:35:55;;;;;;;0.30;0.10;;;-3.10;99.90;;;;;;5067066;28;20309;-88
2021/12/21 05:38:29;;;;;;;0.30;0.10;;;-3.10;99.90;;;;;;5065747;28;20347;-88
2021/12/21 05:41:00;;;;;;;0.30;0.10;;;-3.00;99.90;;;;;;5069872;28;20213;-88
2021/12/21 05:43:27;;;;;;;0.30;0.10;;;-3.00;99.90;;;;;;5071228;28;20198;-87
2021/12/21 05:45:54;;;;;;;0.30;0.10;;;-3.00;99.90;;;;;;5066353;28;20197;-87
2021/12/21 05:48:22;;;;;;;0.30;0.10;;;-3.10;99.90;;;;;;5068701;28;20271;-88
2021/12/21 05:50:49;;;;;;;0.30;0.20;;;-3.20;99.90;;;;;;5069452;28;20217;-88
2021/12/21 05:53:16;;;;;;;2.65;2.53;;;-3.20;99.90;;;;;;5065943;28;20272;-87
2021/12/21 05:55:43;;;;;;;0.30;0.10;;;-3.30;99.90;;;;;;5067485;28;20562;-88
2021/12/21 05:58:11;;;;;;;0.30;0.10;;;-3.40;99.90;;;;;;5066126;28;20275;-88
2021/12/21 06:00:38;;;;;;;0.85;0.80;;;-3.40;99.90;;;;;;5065744;28;20213;-87
2021/12/21 06:03:05;;;;;;;0.40;0.30;;;-3.50;99.90;;;;;;5065824;28;20198;-88
2021/12/21 06:05:32;;;;;;;0.30;0.20;;;-3.50;99.90;;;;;;5069883;28;20193;-89
2021/12/21 06:07:59;;;;;;;0.30;0.10;;;-3.60;99.90;;;;;;5062576;28;20202;-89
2021/12/21 06:10:30;;;;;;;0.30;0.10;;;-3.50;99.90;;;;;;5068942;28;20845;-88
2021/12/21 06:13:19;;;;;;;0.30;0.10;;;-3.60;99.90;;;;;;5071399;28;20194;-87
2021/12/21 06:16:06;;;;;;;0.30;0.10;;;-3.50;99.90;;;;;;5065250;28;20204;-87
2021/12/21 06:27:02;;;;;;;0.30;0.10;;;-3.60;99.90;;;;;;5080756;28;20220;-87
2021/12/21 06:29:29;;;;;;;0.30;0.10;;;-3.50;99.90;;;;;;5067277;28;20202;-87
2021/12/21 06:31:58;;;;;;;0.30;0.10;;;-3.50;99.90;;;;;;5071617;28;20639;-87
2021/12/21 06:34:25;;;;;;;0.40;0.30;;;-3.50;99.90;;;;;;5059162;28;20194;-87
2021/12/21 06:36:52;;;;;;;0.30;0.10;;;-3.40;99.90;;;;;;5070089;28;20201;-87
2021/12/21 06:39:20;;;;;;;0.47;0.47;;;-3.50;99.90;;;;;;5071024;28;20247;-88
2021/12/21 06:41:47;;;;;;;0.30;0.10;;;-3.60;99.90;;;;;;5074436;28;20274;-87
2021/12/21 06:44:16;;;;;;;0.30;0.10;;;-3.50;99.90;;;;;;5062719;28;20645;-89
2021/12/21 06:46:52;;;;;;;0.30;0.20;;;-3.60;99.90;;;;;;5059539;28;20195;-87
2021/12/21 06:52:10;;;;;;;0.30;0.10;;;-3.60;99.90;;;;;;5074950;28;20309;-89
2021/12/21 06:54:37;;;;;;;0.30;0.10;;;-3.60;99.90;;;;;;5069551;28;20205;-91
2021/12/21 06:57:05;;;;;;;0.30;0.10;;;-3.40;99.90;;;;;;5059525;28;20264;-88
2021/12/21 06:59:32;;;;;;;0.30;0.10;;;-3.40;99.90;;;;;;5074057;28;20964;-88
2021/12/21 07:01:59;;;;;;;0.30;0.10;;;-3.40;99.90;;;;;;5071975;28;20205;-88
2021/12/21 07:04:28;;;;;;;0.30;0.10;;;-3.50;99.90;;;;;;5071222;28;20251;-88
2021/12/21 07:06:57;;;;;;;0.30;0.10;;;-3.50;99.90;;;;;;5068498;28;20731;-87
2021/12/21 07:09:32;;;;;;;0.30;0.10;;;-3.50;99.90;;;;;;5057658;28;20194;-88
2021/12/21 07:12:18;;;;;;;0.30;0.10;;;-3.50;99.90;;;;;;5067985;28;20311;-89
2021/12/21 07:20:16;;;;;;;0.30;0.10;;;-3.40;99.90;;;;;;5069858;28;20195;-85
2021/12/21 07:22:43;;;;;;;0.30;0.10;;;-3.40;99.90;;;;;;5066956;28;20201;-85
2021/12/21 07:25:10;;;;;;;0.30;0.10;;;-3.40;99.90;;;;;;5062131;28;20839;-86
2021/12/21 07:27:38;;;;;;;0.30;0.10;;;-3.50;99.90;;;;;;5064822;28;20198;-85
2021/12/21 07:30:06;;;;;;;0.30;0.10;;;-3.40;99.90;;;;;;5060734;28;20201;-86
2021/12/21 07:32:33;;;;;;;0.30;0.17;;;-3.40;99.90;;;;;;5063164;28;20691;-86
2021/12/21 07:35:00;;;;;;;0.30;0.10;;;-3.40;99.90;;;;;;5064929;28;20197;-85
2021/12/21 07:37:29;;;;;;;1.33;1.23;;;-3.30;99.90;;;;;;5058865;28;20279;-85
2021/12/21 07:39:56;;;;;;;0.30;0.10;;;-3.30;99.90;;;;;;5064781;28;20217;-85
2021/12/21 07:42:24;;;;;;;0.30;0.10;;;-3.30;99.90;;;;;;5065054;28;20601;-85
2021/12/21 07:44:51;;;;;;;0.30;0.10;;;-3.20;99.90;;;;;;5068200;28;20212;-85
2021/12/21 07:47:19;;;;;;;0.30;0.10;;;-3.20;99.90;;;;;;5057277;28;20201;-86
2021/12/21 07:49:46;;;;;;;0.30;0.20;;;-3.10;99.90;;;;;;5056489;28;20228;-86
2021/12/21 07:52:15;;;;;;;0.30;0.20;;;-3.00;99.90;;;;;;5057345;28;20217;-86
2021/12/21 07:54:43;;;;;;;0.30;0.10;;;-3.00;99.90;;;;;;5066851;28;20774;-86
2021/12/21 07:57:10;;;;;;;0.30;0.20;;;-3.00;99.90;;;;;;5068382;28;20201;-86
2021/12/21 07:59:39;;;;;;;0.30;0.17;;;-3.00;99.90;;;;;;5080911;28;20254;-86
2021/12/21 08:02:07;;;;;;;1.40;1.40;;;-2.90;99.90;;;;;;5084520;28;20194;-86
2021/12/21 08:04:36;;;;;;;0.30;0.10;;;-3.00;99.90;;;;;;5056734;28;20197;-86
2021/12/21 08:07:09;;;;;;;0.30;0.10;;;-3.00;99.90;;;;;;5065514;28;20655;-86
2021/12/21 08:09:40;;;;;;;0.30;0.10;;;-3.00;99.90;;;;;;5073544;28;20261;-85
2021/12/21 08:12:15;;;;;;;0.30;0.10;;;-2.90;99.90;;;;;;5075531;28;20213;-85
2021/12/21 08:14:42;;;;;;;0.30;0.10;;;-2.90;99.90;;;;;;5095840;28;20200;-87
2021/12/21 08:17:09;;;;;;;0.30;0.10;;;-2.80;99.90;;;;;;5082213;28;20210;-86
2021/12/21 08:19:36;;;;;;;0.30;0.10;;;-2.70;99.90;;;;;;5066740;28;20201;-85
2021/12/21 08:22:04;;;;;;;1.95;1.95;;;-2.70;99.90;;;;;;5068936;28;20251;-86
2021/12/21 08:24:31;;;;;;;0.30;0.10;;;-2.70;99.90;;;;;;5068717;28;20243;-86
2021/12/21 08:26:59;;;;;;;0.30;0.10;;;-2.80;99.90;;;;;;5067106;28;20834;-86
2021/12/21 08:29:28;;;;;;;3.00;1.30;;;-2.70;99.90;;;;;;5065157;28;20193;-86
2021/12/21 08:31:55;;;;;;;0.30;0.10;;;-2.60;99.90;;;;;;5067531;28;20247;-86
2021/12/21 08:34:22;;;;;;;0.30;0.10;;;-2.60;99.90;;;;;;5077454;28;20246;-86
2021/12/21 08:36:50;;;;;;;0.30;0.10;;;-2.50;99.90;;;;;;5062417;28;20212;-85
2021/12/21 08:39:18;;;;;;;0.30;0.10;;;-2.50;99.90;;;;;;5061589;28;20594;-86
2021/12/21 08:41:45;;;;;;;0.30;0.10;;;-2.40;99.90;;;;;;5067607;28;20648;-86
2021/12/21 08:44:20;;;;;;;0.30;0.20;;;-2.40;99.90;;;;;;5066551;28;20692;-86
2021/12/21 08:46:48;;;;;;;0.30;0.10;;;-2.40;99.90;;;;;;5065589;28;20196;-86
2021/12/21 08:49:15;;;;;;;0.30;0.10;;;-2.30;99.90;;;;;;5063026;28;20197;-85
2021/12/21 08:51:42;;;;;;;0.30;0.10;;;-2.20;99.90;;;;;;5063092;28;20688;-86
2021/12/21 08:54:12;;;;;;;0.30;0.10;;;-2.20;99.90;;;;;;5067739;28;20255;-85
2021/12/21 08:56:39;;;;;;;0.30;0.10;;;-2.10;99.90;;;;;;5060789;28;20642;-85
2021/12/21 08:59:06;;;;;;;0.30;0.10;;;-2.10;99.90;;;;;;5068763;28;20202;-86
2021/12/21 09:01:33;;;;;;;0.30;0.10;;;-2.00;99.90;;;;;;5075159;28;20644;-86
2021/12/21 09:04:01;;;;;;;0.30;0.10;;;-1.80;99.90;;;;;;5072493;28;20228;-85
2021/12/21 09:06:28;;;;;;;0.40;0.32;;;-1.80;99.90;;;;;;5082560;28;20204;-86
2021/12/21 09:08:55;;;;;;;0.30;0.10;;;-1.70;99.90;;;;;;5093796;28;20200;-85
2021/12/21 09:11:22;;;;;;;0.30;0.10;;;-1.60;99.90;;;;;;5066765;28;20202;-86
2021/12/21 09:13:49;;;;;;;0.35;0.22;;;-1.50;99.90;;;;;;5077251;28;20197;-85
2021/12/21 09:16:17;;;;;;;0.30;0.10;;;-1.50;99.90;;;;;;5074165;28;20270;-86
2021/12/21 09:18:44;;;;;;;0.30;0.10;;;-1.50;99.90;;;;;;5086896;28;20719;-85
2021/12/21 09:21:13;;;;;;;0.45;0.43;;;-1.50;99.90;;;;;;5073109;28;20203;-85
2021/12/21 09:23:41;;;;;;;0.30;0.10;;;-1.40;99.90;;;;;;5088440;28;20193;-85
2021/12/21 09:26:08;;;;;;;0.30;0.10;;;-1.40;99.90;;;;;;5079995;28;20194;-86
2021/12/21 09:28:35;;;;;;;0.30;0.10;;;-1.30;99.90;;;;;;5071262;28;20197;-85
2021/12/21 09:31:02;;;;;;;0.30;0.10;;;-1.20;99.90;;;;;;5073006;28;20238;-86
2021/12/21 09:33:29;;;;;;;0.30;0.20;;;-1.20;99.90;;;;;;5065448;28;20276;-85
2021/12/21 09:35:56;;;;;;;0.30;0.10;;;-1.20;99.90;;;;;;5062588;28;20198;-85
2021/12/21 09:38:24;;;;;;;0.30;0.10;;;-1.20;99.90;;;;;;5090461;28;20221;-86
2021/12/21 09:40:54;;;;;;;0.30;0.10;;;-1.30;99.90;;;;;;5071476;28;20233;-86
2021/12/21 09:43:21;;;;;;;5.05;1.75;;;-1.20;99.90;;;;;;5069409;28;20389;-86
2021/12/21 09:45:49;;;;;;;0.30;0.10;;;-1.20;99.90;;;;;;5071864;28;20254;-86
2021/12/21 09:48:16;;;;;;;0.30;0.10;;;-1.20;99.90;;;;;;5066667;28;20198;-85
2021/12/21 09:50:43;;;;;;;0.30;0.10;;;-1.10;99.90;;;;;;5088012;28;20197;-86
2021/12/21 09:53:10;;;;;;;0.30;0.10;;;-1.10;99.90;;;;;;5072121;28;20234;-85
2021/12/21 09:55:38;;;;;;;0.30;0.10;;;-1.10;99.90;;;;;;5063170;28;20195;-86
2021/12/21 09:58:05;;;;;;;0.30;0.10;;;-1.00;99.90;;;;;;5077544;28;20198;-85
2021/12/21 10:00:34;;;;;;;0.30;0.10;;;-0.90;99.90;;;;;;5075991;28;20197;-86
2021/12/21 10:03:04;;;;;;;0.30;0.10;;;-0.70;99.90;;;;;;5079979;28;20226;-86
2021/12/21 10:05:33;;;;;;;0.40;0.30;;;-0.70;99.90;;;;;;5084473;28;20193;-85
2021/12/21 10:08:02;;;;;;;0.30;0.10;;;-0.70;99.90;;;;;;5102524;28;20201;-85
2021/12/21 10:10:33;;;;;;;0.30;0.10;;;-0.50;99.90;;;;;;5076003;28;20249;-84
2021/12/21 10:13:10;;;;;;;0.30;0.10;;;-0.50;99.90;;;;;;5072668;28;20280;-84
2021/12/21 10:15:42;;;;;;;0.30;0.10;;;-0.40;99.90;;;;;;5055434;28;20251;-84
2021/12/21 10:18:09;;;;;;;0.30;0.10;;;-0.30;99.90;;;;;;5070447;28;20203;-84
2021/12/21 10:20:38;;;;;;;0.30;0.10;;;-0.30;99.90;;;;;;5064682;28;20535;-84
2021/12/21 10:23:09;;;;;;;0.30;0.10;;;-0.20;99.90;;;;;;5055904;28;20290;-85
2021/12/21 10:25:41;;;;;;;0.30;0.10;;;0.00;99.90;;;;;;5070299;28;20195;-85
2021/12/21 10:28:10;;;;;;;0.30;0.10;;;0.00;99.90;;;;;;5068202;28;20660;-85
2021/12/21 10:30:49;;;;;;;0.30;0.10;;;-0.10;99.90;;;;;;5059951;28;20255;-85
2021/12/21 10:33:16;;;;;;;0.30;0.20;;;0.00;99.90;;;;;;5065990;28;20239;-83
2021/12/21 10:35:44;;;;;;;0.30;0.10;;;0.10;99.90;;;;;;5064435;28;20762;-87
2021/12/21 10:38:12;;;;;;;0.30;0.10;;;0.10;99.90;;;;;;5068617;28;20646;-86
2021/12/21 10:40:40;;;;;;;0.30;0.10;;;0.30;99.90;;;;;;5082738;28;20281;-86
2021/12/21 10:43:09;;;;;;;0.30;0.20;;;0.50;99.90;;;;;;5072877;28;20256;-86
2021/12/21 10:45:39;;;;;;;0.30;0.20;;;0.60;99.90;;;;;;5076628;28;21065;-85
2021/12/21 10:48:08;;;;;;;1.35;0.55;;;0.50;99.90;;;;;;5071072;28;20231;-85
2021/12/21 10:50:36;;;;;;;0.30;0.20;;;0.60;99.90;;;;;;5083408;28;20395;-86
2021/12/21 10:53:05;;;;;;;0.30;0.10;;;0.60;99.90;;;;;;5079835;28;20223;-86
2021/12/21 10:55:34;;;;;;;0.30;0.20;;;0.90;99.90;;;;;;5071170;28;20615;-85
2021/12/21 10:58:11;;;;;;;0.30;0.17;;;0.70;99.90;;;;;;5067754;28;20206;-86
2021/12/21 11:00:44;;;;;;;0.30;0.10;;;0.70;99.90;;;;;;5072989;28;20214;-86
2021/12/21 11:03:11;;;;;;;0.30;0.10;;;0.80;99.90;;;;;;5066194;28;20272;-85
2021/12/21 11:05:38;;;;;;;0.30;0.10;;;0.80;99.90;;;;;;5054938;28;20204;-85
2021/12/21 11:08:07;;;;;;;0.30;0.10;;;0.90;99.90;;;;;;5065727;28;20277;-86
2021/12/21 11:10:37;;;;;;;0.30;0.10;;;0.90;99.90;;;;;;5070098;28;20197;-85
2021/12/21 11:13:07;;;;;;;0.30;0.15;;;0.90;99.90;;;;;;5060772;28;20704;-86
2021/12/21 11:15:38;;;;;;;0.30;0.10;;;1.00;99.90;;;;;;5065569;28;20685;-86
2021/12/21 11:18:08;;;;;;;0.30;0.10;;;0.90;99.90;;;;;;5070576;28;20246;-86
2021/12/21 11:20:38;;;;;;;0.30;0.10;;;1.00;99.90;;;;;;5068223;28;20200;-86
2021/12/21 11:23:06;;;;;;;0.30;0.10;;;1.10;99.90;;;;;;5069029;28;20240;-86
2021/12/21 11:25:35;;;;;;;0.30;0.20;;;1.10;99.90;;;;;;5070052;28;20195;-86
2021/12/21 11:28:04;;;;;;;0.30;0.10;;;1.20;99.90;;;;;;5068308;28;20201;-87
2021/12/21 11:30:34;;;;;;;0.30;0.10;;;1.10;99.90;;;;;;5050527;28;20255;-86
2021/12/21 11:33:03;;;;;;;0.30;0.10;;;1.30;99.90;;;;;;5067305;28;20613;-86
2021/12/21 11:38:17;;;;;;;0.30;0.20;;;1.70;99.90;;;;;;5069532;28;20234;-86
2021/12/21 11:40:46;;;;;;;0.30;0.10;;;1.70;99.90;;;;;;5077776;28;20660;-87
2021/12/21 11:43:22;;;;;;;0.30;0.10;;;1.60;99.90;;;;;;5068769;28;20555;-87
2021/12/21 11:45:54;;;;;;;0.30;0.10;;;1.60;99.90;;;;;;5070422;28;20689;-87
2021/12/21 11:48:34;;;;;;;0.30;0.10;;;1.50;99.90;;;;;;5069236;28;20199;-86
2021/12/21 11:51:06;;;;;;;0.30;0.10;;;1.40;99.90;;;;;;5082306;28;20533;-86
2021/12/21 11:53:33;;;;;;;0.30;0.10;;;1.30;99.90;;;;;;5075155;28;20225;-88
2021/12/21 11:56:01;;;;;;;0.30;0.10;;;1.40;99.90;;;;;;5084631;28;20192;-86
2021/12/21 11:58:32;;;;;;;0.30;0.10;;;1.40;99.90;;;;;;5096657;28;20234;-86
2021/12/21 12:01:02;;;;;;;0.30;0.10;;;1.40;99.90;;;;;;5081375;28;20196;-86
2021/12/21 12:03:32;;;;;;;0.30;0.20;;;1.50;99.90;;;;;;5071381;28;20205;-85
2021/12/21 12:06:00;;;;;;;0.30;0.10;;;1.60;99.90;;;;;;5074241;28;20448;-87
2021/12/21 12:08:42;;;;;;;0.30;0.10;;;1.50;99.90;;;;;;5058697;28;20501;-85
2021/12/21 12:11:20;;;;;;;0.30;0.10;;;1.50;99.90;;;;;;5070173;28;20446;-86
2021/12/21 12:13:48;;;;;;;0.30;0.10;;;1.50;99.90;;;;;;5072555;28;20874;-86
2021/12/21 12:16:16;;;;;;;0.30;0.10;;;1.50;99.90;;;;;;5078138;28;20512;-86
2021/12/21 12:18:45;;;;;;;0.30;0.10;;;1.60;99.90;;;;;;5079783;28;20791;-86
2021/12/21 12:21:15;;;;;;;0.30;0.10;;;1.60;99.90;;;;;;5072236;28;20460;-85
2021/12/21 12:23:52;;;;;;;0.30;0.20;;;1.50;99.90;;;;;;5069764;28;20205;-85
2021/12/21 12:26:25;;;;;;;0.30;0.10;;;1.40;99.90;;;;;;5068782;28;20208;-85
2021/12/21 12:28:53;;;;;;;0.30;0.10;;;1.40;99.90;;;;;;5068899;28;20890;-87
2021/12/21 12:31:32;;;;;;;0.30;0.10;;;1.30;99.90;;;;;;5088402;28;20197;-85
2021/12/21 12:33:59;;;;;;;0.30;0.10;;;1.30;99.90;;;;;;5070612;28;20403;-85
2021/12/21 12:36:47;;;;;;;0.30;0.10;;;1.30;99.90;;;;;;5078083;28;20254;-86
2021/12/21 12:39:29;;;;;;;0.30;0.20;;;1.40;99.90;;;;;;5082814;28;20327;-86
2021/12/21 12:42:06;;;;;;;0.30;0.10;;;1.40;99.90;;;;;;5074790;28;20193;-91
2021/12/21 12:44:33;;;;;;;0.30;0.10;;;1.50;99.90;;;;;;5063409;28;20411;-87
2021/12/21 12:47:04;;;;;;;0.40;0.30;;;1.40;99.90;;;;;;5079092;28;20257;-88
2021/12/21 12:49:34;;;;;;;0.30;0.20;;;1.50;99.90;;;;;;5073500;28;20729;-87
2021/12/21 12:52:12;;;;;;;0.30;0.10;;;1.50;99.90;;;;;;5079619;28;20202;-89
2021/12/21 12:54:55;;;;;;;0.30;0.10;;;1.50;99.90;;;;;;5100924;28;20216;-87
2021/12/21 12:57:28;;;;;;;0.30;0.20;;;1.50;99.90;;;;;;5096953;28;20479;-90
2021/12/21 12:59:57;;;;;;;0.40;0.30;;;1.50;99.90;;;;;;5072879;28;20250;-87
2021/12/21 13:02:26;;;;;;;0.30;0.10;;;1.50;99.90;;;;;;5072923;28;20991;-88
2021/12/21 13:04:53;;;;;;;0.30;0.10;;;1.50;99.90;;;;;;5066811;28;20462;-89
2021/12/21 13:07:27;;;;;;;0.30;0.10;;;1.40;99.90;;;;;;5065979;28;20278;-85
2021/12/21 13:10:05;;;;;;;0.30;0.10;;;1.40;99.90;;;;;;5073383;28;20196;-88
2021/12/21 13:12:32;;;;;;;0.30;0.10;;;1.40;99.90;;;;;;5072136;28;20207;-86
2021/12/21 13:14:59;;;;;;;0.30;0.10;;;1.40;99.80;;;;;;5070061;28;20204;-86
2021/12/21 13:17:26;;;;;;;0.30;0.10;;;1.40;99.20;;;;;;5071353;28;20391;-85
2021/12/21 13:19:53;;;;;;;0.30;0.10;;;1.40;98.80;;;;;;5088201;28;20458;-85
2021/12/21 13:22:24;;;;;;;0.30;0.10;;;1.40;99.10;;;;;;5072851;28;20245;-85
2021/12/21 13:24:52;;;;;;;0.30;0.10;;;1.40;99.50;;;;;;5071973;28;20853;-85
2021/12/21 13:27:24;;;;;;;0.30;0.10;;;1.30;99.30;;;;;;5071360;28;20569;-86
2021/12/21 13:29:52;;;;;;;0.30;0.10;;;1.30;99.60;;;;;;5072440;28;20201;-86